Time;durP1;ratioP1;P1;durP2;ratioP2;P2;SDS_P1;SDS_P2;PMS_P1;PMS_P2;Temp;Humidity;BMP_temperature;BMP_pressure;BME280_temperature;BME280_humidity;BME280_pressure;Samples;Min_cycle;Max_cycle;Signal;HPM_P1;HPM_P2
2023/07/18 00:00:14;;;;;;;4.20;3.80;;;;;;;20.41;64.33;96618.81;5114212;28;20067;-64
2023/07/18 00:02:43;;;;;;;4.95;4.45;;;;;;;20.42;63.71;96615.22;5114382;28;20043;-64
2023/07/18 00:05:12;;;;;;;3.95;3.50;;;;;;;20.43;64.14;96610.72;5114087;28;20048;-64
2023/07/18 00:07:40;;;;;;;5.15;3.92;;;;;;;20.40;63.98;96614.47;5114046;28;20052;-64
2023/07/18 00:10:10;;;;;;;5.75;4.22;;;;;;;20.36;64.40;96617.47;5114047;28;20126;-64
2023/07/18 00:12:37;;;;;;;5.15;4.35;;;;;;;20.29;64.24;96609.13;5113933;28;20047;-64
2023/07/18 00:15:06;;;;;;;4.38;3.97;;;;;;;20.28;64.53;96607.44;5113906;28;20054;-64
2023/07/18 00:17:34;;;;;;;5.15;3.90;;;;;;;20.25;64.29;96603.22;5113555;28;20492;-64
2023/07/18 00:20:01;;;;;;;9.32;4.40;;;;;;;20.15;64.61;96602.22;5113865;28;20051;-64
2023/07/18 00:22:28;;;;;;;5.25;3.60;;;;;;;20.10;64.68;96609.72;5113879;28;20047;-64
2023/07/18 00:24:55;;;;;;;5.07;4.10;;;;;;;20.07;64.91;96602.78;5113782;28;20065;-64
2023/07/18 00:27:24;;;;;;;5.60;4.13;;;;;;;20.02;64.98;96597.81;5113736;28;20039;-64
2023/07/18 00:29:51;;;;;;;4.47;4.05;;;;;;;19.98;64.85;96598.19;5113748;28;20495;-64
2023/07/18 00:32:18;;;;;;;4.60;4.20;;;;;;;19.95;65.38;96602.75;5114062;28;20047;-64
2023/07/18 00:34:46;;;;;;;5.68;4.13;;;;;;;19.94;64.49;96603.72;5113629;28;20087;-64
2023/07/18 00:37:13;;;;;;;5.47;4.10;;;;;;;19.90;64.31;96598.75;5113541;28;20044;-63
2023/07/18 00:39:40;;;;;;;5.50;3.92;;;;;;;19.85;64.54;96604.41;5113484;28;20047;-64
2023/07/18 00:42:07;;;;;;;6.55;3.70;;;;;;;19.75;64.36;96606.88;5113561;28;20048;-64
2023/07/18 00:44:36;;;;;;;5.47;3.92;;;;;;;19.72;64.77;96595.66;5113051;28;20071;-64
2023/07/18 00:47:04;;;;;;;5.10;4.22;;;;;;;19.72;65.21;96595.66;5113582;28;20044;-64
2023/07/18 00:49:31;;;;;;;4.60;4.20;;;;;;;19.66;65.05;96600.44;5113450;28;20047;-64
2023/07/18 00:52:00;;;;;;;5.25;3.83;;;;;;;19.64;65.12;96593.56;5113521;28;20069;-64
2023/07/18 00:54:28;;;;;;;5.10;4.50;;;;;;;19.59;64.32;96575.34;5113511;28;20084;-64
2023/07/18 00:56:56;;;;;;;6.50;4.30;;;;;;;19.48;65.07;96570.00;5113458;28;20040;-64
2023/07/18 00:59:25;;;;;;;5.60;4.30;;;;;;;19.41;64.71;96575.75;5113415;28;20085;-64
2023/07/18 01:01:53;;;;;;;6.30;4.15;;;;;;;19.35;65.16;96580.66;5113373;28;20084;-63
2023/07/18 01:04:21;;;;;;;5.60;4.82;;;;;;;19.28;65.63;96578.47;5113683;28;20396;-64
2023/07/18 01:06:49;;;;;;;6.47;3.97;;;;;;;19.26;66.00;96572.41;5113228;28;20043;-63
2023/07/18 01:09:16;;;;;;;4.50;4.10;;;;;;;19.21;65.53;96569.25;5113274;28;20130;-63
2023/07/18 01:11:43;;;;;;;7.88;4.30;;;;;;;19.16;65.62;96568.72;5113217;28;20047;-65
2023/07/18 01:14:11;;;;;;;6.80;4.47;;;;;;;19.11;65.63;96563.75;5113505;28;20193;-65
2023/07/18 01:16:38;;;;;;;4.53;4.13;;;;;;;19.08;65.38;96563.97;5113229;28;20047;-64
2023/07/18 01:19:07;;;;;;;5.38;4.38;;;;;;;19.06;65.78;96557.94;5113120;28;20043;-64
2023/07/18 01:21:36;;;;;;;5.53;4.60;;;;;;;19.04;65.78;96549.22;5113160;28;20083;-65
2023/07/18 01:24:03;;;;;;;4.63;4.03;;;;;;;19.03;65.71;96550.19;5113172;28;20135;-65
2023/07/18 01:26:30;;;;;;;5.22;3.92;;;;;;;18.95;66.12;96550.75;5113208;28;20048;-65
2023/07/18 01:28:57;;;;;;;5.20;3.85;;;;;;;18.87;66.17;96553.13;5113186;28;20039;-66
2023/07/18 01:31:24;;;;;;;5.00;4.50;;;;;;;18.82;66.74;96548.97;5113224;28;20093;-65
2023/07/18 01:33:51;;;;;;;5.75;4.40;;;;;;;18.76;67.04;96544.13;5113264;28;20481;-65
2023/07/18 01:36:18;;;;;;;4.28;3.85;;;;;;;18.80;67.03;96550.03;5112962;28;20130;-65
2023/07/18 01:38:47;;;;;;;4.88;4.25;;;;;;;18.76;66.23;96552.09;5112885;28;20048;-65
2023/07/18 01:41:15;;;;;;;6.75;4.20;;;;;;;18.71;66.35;96551.53;5112908;28;20477;-65
2023/07/18 01:43:42;;;;;;;9.30;4.75;;;;;;;18.65;66.57;96550.19;5112797;28;20044;-64
2023/07/18 01:46:10;;;;;;;4.95;4.45;;;;;;;18.65;67.29;96544.88;5113255;28;20043;-65
2023/07/18 01:48:38;;;;;;;4.47;3.70;;;;;;;18.67;65.95;96550.06;5112944;28;20055;-64
2023/07/18 01:51:05;;;;;;;5.18;3.95;;;;;;;18.59;66.46;96553.25;5112865;28;20051;-65
2023/07/18 01:53:32;;;;;;;5.78;3.97;;;;;;;18.55;66.09;96546.50;5112967;28;20045;-65
2023/07/18 01:56:01;;;;;;;6.90;4.40;;;;;;;18.56;66.81;96545.53;5115025;28;20496;-65
2023/07/18 01:58:28;;;;;;;9.38;4.57;;;;;;;18.52;66.26;96544.91;5116653;28;20127;-63
2023/07/18 02:00:55;;;;;;;4.40;3.97;;;;;;;18.49;66.42;96544.28;5116479;28;20040;-64
2023/07/18 02:03:22;;;;;;;6.90;4.43;;;;;;;18.50;66.06;96538.00;5116514;28;20134;-64
2023/07/18 02:05:49;;;;;;;4.55;3.88;;;;;;;18.48;65.88;96547.88;5116388;28;20416;-65
2023/07/18 02:08:16;;;;;;;8.55;4.20;;;;;;;18.44;66.13;96544.59;5116331;28;20126;-65
2023/07/18 02:10:44;;;;;;;4.20;3.80;;;;;;;18.40;66.32;96538.69;5116275;28;20481;-65
2023/07/18 02:13:12;;;;;;;5.65;3.92;;;;;;;18.34;66.26;96538.25;5116468;28;20062;-65
2023/07/18 02:15:39;;;;;;;5.72;4.30;;;;;;;18.31;66.30;96537.50;5116307;28;20605;-65
2023/07/18 02:18:06;;;;;;;8.05;4.22;;;;;;;18.32;65.87;96538.34;5116043;28;20054;-65
2023/07/18 02:20:33;;;;;;;6.53;3.80;;;;;;;18.31;66.21;96534.84;5116078;28;20047;-65
2023/07/18 02:23:01;;;;;;;5.43;4.10;;;;;;;18.28;65.46;96531.59;5116084;28;20087;-65
2023/07/18 02:25:28;;;;;;;5.65;4.15;;;;;;;18.23;65.33;96531.91;5116389;28;20051;-65
2023/07/18 02:27:55;;;;;;;5.85;3.60;;;;;;;18.22;65.18;96532.00;5115868;28;20048;-65
2023/07/18 02:30:24;;;;;;;7.88;4.07;;;;;;;18.15;66.01;96535.06;5115911;28;20040;-65
2023/07/18 02:32:53;;;;;;;4.40;4.00;;;;;;;18.12;66.01;96537.09;5115965;28;20054;-65
2023/07/18 02:35:21;;;;;;;9.75;3.80;;;;;;;18.06;65.62;96536.53;5115777;28;20047;-65
2023/07/18 02:37:49;;;;;;;5.20;4.20;;;;;;;18.03;66.16;96531.44;5115686;28;20108;-65
2023/07/18 02:40:17;;;;;;;4.70;4.18;;;;;;;18.00;66.23;96536.94;5115781;28;20125;-65
2023/07/18 02:42:44;;;;;;;7.28;4.68;;;;;;;17.96;66.32;96534.59;5115661;28;20511;-65
2023/07/18 02:45:12;;;;;;;4.18;3.75;;;;;;;17.96;66.24;96537.25;5115580;28;20130;-65
2023/07/18 02:47:40;;;;;;;6.60;3.90;;;;;;;17.97;65.91;96531.84;5115551;28;20079;-66
2023/07/18 02:50:08;;;;;;;6.13;4.18;;;;;;;18.00;66.07;96526.34;5115484;28;20138;-64
2023/07/18 02:52:35;;;;;;;5.05;3.63;;;;;;;18.01;65.44;96528.06;5115473;28;20050;-65
2023/07/18 02:55:03;;;;;;;7.18;4.03;;;;;;;18.00;66.47;96531.66;5115424;28;20039;-64
2023/07/18 02:57:31;;;;;;;6.07;4.13;;;;;;;17.99;66.27;96532.59;5115298;28;20044;-65
2023/07/18 02:59:58;;;;;;;3.95;3.22;;;;;;;17.97;66.53;96523.91;5115151;28;20062;-65
2023/07/18 03:02:25;;;;;;;4.10;3.75;;;;;;;18.00;65.62;96536.94;5115248;28;20475;-65
2023/07/18 03:04:53;;;;;;;5.82;3.33;;;;;;;17.92;65.58;96528.69;5115332;28;20520;-65
2023/07/18 03:07:20;;;;;;;4.45;3.80;;;;;;;17.91;65.80;96527.84;5114675;28;20058;-64
2023/07/18 03:09:48;;;;;;;7.03;4.15;;;;;;;17.93;66.62;96519.78;5115149;28;20047;-65
2023/07/18 03:12:15;;;;;;;6.20;3.85;;;;;;;17.91;66.36;96525.19;5115059;28;20044;-65
2023/07/18 03:14:42;;;;;;;4.35;3.60;;;;;;;17.93;65.67;96530.38;5114944;28;20097;-65
2023/07/18 03:17:10;;;;;;;6.00;4.22;;;;;;;17.95;66.08;96528.47;5114673;28;20054;-65
2023/07/18 03:19:37;;;;;;;7.20;3.85;;;;;;;17.91;66.35;96527.00;5114892;28;20168;-65
2023/07/18 03:22:05;;;;;;;4.13;3.72;;;;;;;17.93;66.54;96523.28;5115081;28;20055;-64
2023/07/18 03:24:34;;;;;;;5.30;3.92;;;;;;;17.91;67.08;96525.19;5114816;28;20046;-64
2023/07/18 03:27:03;;;;;;;4.60;3.70;;;;;;;17.96;67.17;96524.03;5114839;28;20043;-65
2023/07/18 03:29:30;;;;;;;6.70;4.10;;;;;;;17.99;67.01;96526.47;5114792;28;20055;-65
2023/07/18 03:31:59;;;;;;;4.85;3.65;;;;;;;17.98;66.88;96528.28;5114609;28;20043;-65
2023/07/18 03:34:27;;;;;;;6.18;4.47;;;;;;;18.02;67.42;96524.47;5114727;28;20046;-65
2023/07/18 03:36:55;;;;;;;3.97;3.33;;;;;;;18.03;67.48;96522.66;5114583;28;20049;-65
2023/07/18 03:39:23;;;;;;;5.15;3.65;;;;;;;18.03;67.61;96514.72;5114420;28;20051;-65
2023/07/18 03:41:50;;;;;;;4.35;3.40;;;;;;;18.12;67.90;96519.41;5114515;28;20048;-65
2023/07/18 03:44:18;;;;;;;5.47;4.07;;;;;;;18.23;67.15;96520.47;5114485;28;20043;-65
2023/07/18 03:46:45;;;;;;;4.95;3.90;;;;;;;18.28;66.99;96523.66;5114394;28;20047;-65
2023/07/18 03:49:12;;;;;;;4.70;3.70;;;;;;;18.33;66.95;96524.16;5114285;28;20139;-66
2023/07/18 03:51:40;;;;;;;6.00;3.92;;;;;;;18.49;67.33;96528.38;5114353;28;20392;-66
2023/07/18 03:54:07;;;;;;;8.68;3.90;;;;;;;18.66;66.73;96528.03;5114297;28;20105;-65
2023/07/18 03:56:35;;;;;;;5.35;3.83;;;;;;;18.89;65.97;96530.00;5114171;28;20075;-65
2023/07/18 03:59:03;;;;;;;6.30;3.53;;;;;;;19.16;65.36;96535.13;5114090;28;20063;-65
2023/07/18 04:01:30;;;;;;;5.07;4.07;;;;;;;19.49;64.99;96531.88;5114098;28;20449;-65
2023/07/18 04:03:57;;;;;;;3.70;3.17;;;;;;;19.83;64.61;96532.00;5114034;28;20489;-65
2023/07/18 04:06:25;;;;;;;6.15;3.53;;;;;;;20.17;62.84;96526.78;5113989;28;20093;-65
2023/07/18 04:08:53;;;;;;;6.43;3.65;;;;;;;20.58;62.57;96526.31;5113932;28;20132;-65
2023/07/18 04:11:21;;;;;;;6.40;3.72;;;;;;;20.96;60.84;96524.25;5113903;28;20085;-65
2023/07/18 04:13:50;;;;;;;4.45;3.45;;;;;;;21.29;59.67;96535.78;5114165;28;20058;-65
2023/07/18 04:16:17;;;;;;;6.88;3.22;;;;;;;21.57;58.35;96530.84;5113817;28;20412;-65
2023/07/18 04:18:44;;;;;;;5.90;3.10;;;;;;;21.86;58.37;96525.88;5113009;28;20043;-65
2023/07/18 04:21:12;;;;;;;3.72;3.25;;;;;;;22.20;57.87;96520.34;5113889;28;20043;-65
2023/07/18 04:23:38;;;;;;;6.45;3.08;;;;;;;22.54;57.19;96528.06;5113763;28;20051;-65
2023/07/18 04:26:06;;;;;;;6.18;3.10;;;;;;;22.86;57.03;96528.91;5113791;28;20600;-65
2023/07/18 04:28:36;;;;;;;5.15;2.92;;;;;;;23.13;55.20;96526.59;5113745;28;20050;-65
2023/07/18 04:31:05;;;;;;;4.75;3.30;;;;;;;23.45;55.58;96526.38;5113639;28;20123;-65
2023/07/18 04:33:36;;;;;;;4.30;3.20;;;;;;;23.75;53.56;96537.03;5113617;28;20048;-65
2023/07/18 04:36:04;;;;;;;6.10;3.42;;;;;;;24.03;52.73;96522.97;5113653;28;20040;-66
2023/07/18 04:38:32;;;;;;;3.53;3.22;;;;;;;24.29;53.42;96515.19;5113508;28;20556;-66
2023/07/18 04:41:00;;;;;;;5.05;3.30;;;;;;;24.65;52.26;96516.34;5113554;28;20093;-65
2023/07/18 04:43:27;;;;;;;5.30;3.55;;;;;;;24.93;52.20;96519.03;5113620;28;20043;-66
2023/07/18 04:45:54;;;;;;;3.30;2.95;;;;;;;25.23;51.12;96527.72;5113458;28;20047;-65
2023/07/18 04:48:23;;;;;;;3.85;3.13;;;;;;;25.47;51.25;96519.06;5113415;28;20040;-65
2023/07/18 04:50:57;;;;;;;5.22;3.30;;;;;;;25.71;50.86;96517.63;5113460;28;20228;-65
2023/07/18 04:53:27;;;;;;;3.80;3.30;;;;;;;25.88;49.85;96519.63;5113633;28;20131;-65
2023/07/18 04:55:55;;;;;;;2.75;2.55;;;;;;;26.16;48.96;96523.00;5113394;28;20413;-64
2023/07/18 04:58:25;;;;;;;7.03;3.10;;;;;;;26.35;49.08;96516.63;5113617;28;20114;-65
2023/07/18 05:00:53;;;;;;;7.10;3.30;;;;;;;26.75;47.94;96518.81;5113326;28;20439;-65
2023/07/18 05:03:22;;;;;;;5.05;3.53;;;;;;;27.15;47.16;96523.66;5113426;28;20130;-65
2023/07/18 05:05:50;;;;;;;3.72;3.22;;;;;;;27.40;44.23;96527.25;5113400;28;20050;-65
2023/07/18 05:08:17;;;;;;;4.93;3.55;;;;;;;27.60;43.37;96526.94;5113381;28;20048;-65
2023/07/18 05:10:45;;;;;;;4.25;3.63;;;;;;;27.73;43.59;96526.47;5113172;28;20074;-65
2023/07/18 05:13:12;;;;;;;5.28;3.40;;;;;;;27.89;41.71;96522.94;5113385;28;20050;-64
2023/07/18 05:15:39;;;;;;;4.30;3.38;;;;;;;28.07;41.13;96525.44;5113327;28;20052;-64
2023/07/18 05:18:06;;;;;;;3.88;2.80;;;;;;;28.26;39.75;96529.59;5113097;28;20075;-65
2023/07/18 05:20:34;;;;;;;4.65;3.33;;;;;;;28.46;40.65;96521.19;5113091;28;20101;-65
2023/07/18 05:23:02;;;;;;;4.43;2.75;;;;;;;28.67;42.47;96514.41;5113287;28;20043;-65
2023/07/18 05:25:29;;;;;;;4.43;3.90;;;;;;;28.95;42.13;96513.97;5113123;28;20473;-64
2023/07/18 05:27:58;;;;;;;7.80;3.20;;;;;;;29.11;40.68;96517.59;5113078;28;20044;-64
2023/07/18 05:30:25;;;;;;;3.78;2.78;;;;;;;29.39;40.65;96517.09;5116040;28;20071;-65
2023/07/18 05:32:53;;;;;;;3.72;3.17;;;;;;;29.67;40.02;96519.28;5117077;28;20044;-65
2023/07/18 05:35:21;;;;;;;3.38;3.08;;;;;;;29.97;38.77;96507.72;5116984;28;20054;-65
2023/07/18 05:37:49;;;;;;;4.40;3.22;;;;;;;30.24;41.06;96511.72;5116928;28;20130;-65
2023/07/18 05:40:16;;;;;;;4.95;2.83;;;;;;;30.42;39.58;96507.81;5116741;28;20105;-65
2023/07/18 05:42:44;;;;;;;4.68;3.45;;;;;;;30.50;40.14;96515.84;5116845;28;20411;-65
2023/07/18 05:45:11;;;;;;;6.05;3.25;;;;;;;30.82;40.00;96509.44;5116801;28;20055;-65
2023/07/18 05:47:39;;;;;;;3.92;3.10;;;;;;;31.02;38.50;96512.38;5116671;28;20039;-65
2023/07/18 05:50:08;;;;;;;5.80;3.63;;;;;;;31.25;38.41;96508.69;5116678;28;20088;-65
2023/07/18 05:52:35;;;;;;;9.45;3.50;;;;;;;31.56;38.60;96504.88;5116520;28;20039;-65
2023/07/18 05:55:04;;;;;;;3.67;3.17;;;;;;;31.90;36.75;96505.16;5116631;28;20044;-65
2023/07/18 05:57:32;;;;;;;3.53;3.23;;;;;;;32.17;35.80;96504.56;5116685;28;20048;-65
2023/07/18 05:59:59;;;;;;;4.63;3.80;;;;;;;32.36;33.31;96505.75;5116454;28;20129;-65
2023/07/18 06:02:26;;;;;;;7.68;3.63;;;;;;;32.48;34.76;96506.03;5116530;28;20075;-65
2023/07/18 06:04:55;;;;;;;4.22;3.17;;;;;;;32.56;33.58;96505.88;5116482;28;20481;-65
2023/07/18 06:07:22;;;;;;;3.90;3.20;;;;;;;32.65;34.07;96504.69;5116386;28;20048;-65
2023/07/18 06:09:52;;;;;;;5.90;3.45;;;;;;;32.56;33.26;96497.75;5116269;28;20071;-64
2023/07/18 06:12:20;;;;;;;4.65;3.60;;;;;;;32.56;33.97;96500.47;5116239;28;20447;-64
2023/07/18 06:14:48;;;;;;;5.60;3.03;;;;;;;32.74;33.52;96490.97;5116304;28;20078;-65
2023/07/18 06:17:16;;;;;;;7.78;3.00;;;;;;;33.03;35.30;96486.31;5115980;28;20051;-64
2023/07/18 06:19:46;;;;;;;11.95;3.55;;;;;;;33.27;34.22;96492.22;5116260;28;20079;-65
2023/07/18 06:22:13;;;;;;;4.82;3.35;;;;;;;33.50;33.23;96491.84;5116105;28;20568;-64
2023/07/18 06:24:41;;;;;;;5.97;3.70;;;;;;;33.71;34.25;96497.34;5116013;28;20098;-65
2023/07/18 06:27:08;;;;;;;4.88;3.33;;;;;;;33.95;34.03;96485.00;5116315;28;20058;-64
2023/07/18 06:29:36;;;;;;;5.50;3.70;;;;;;;34.23;31.34;96488.56;5115938;28;20107;-64
2023/07/18 06:32:05;;;;;;;4.85;3.40;;;;;;;34.37;30.88;96492.13;5115985;28;20109;-65
2023/07/18 06:34:33;;;;;;;3.42;3.13;;;;;;;34.46;31.72;96493.53;5115900;28;20048;-64
2023/07/18 06:37:02;;;;;;;10.93;3.40;;;;;;;34.63;32.14;96487.63;5115719;28;20108;-65
2023/07/18 06:39:30;;;;;;;3.75;3.20;;;;;;;34.82;30.90;96491.34;5115738;28;20134;-65
2023/07/18 06:41:58;;;;;;;5.03;3.42;;;;;;;35.03;31.63;96492.09;5114892;28;20052;-65
2023/07/18 06:44:25;;;;;;;7.60;3.38;;;;;;;35.05;28.75;96492.72;5115952;28;20408;-64
2023/07/18 06:46:54;;;;;;;5.25;3.45;;;;;;;35.06;29.53;96485.44;5115657;28;20051;-65
2023/07/18 06:49:21;;;;;;;4.25;3.50;;;;;;;35.03;30.31;96484.78;5115505;28;20231;-65
2023/07/18 06:51:49;;;;;;;6.00;3.85;;;;;;;34.86;31.29;96491.78;5115729;28;20055;-65
2023/07/18 06:54:16;;;;;;;6.25;3.60;;;;;;;34.36;30.15;96483.13;5115423;28;20485;-65
2023/07/18 06:56:44;;;;;;;3.63;3.30;;;;;;;34.48;32.68;96488.72;5115352;28;20044;-65
2023/07/18 06:59:13;;;;;;;5.50;3.63;;;;;;;34.73;31.82;96482.63;5115209;28;20084;-64
2023/07/18 07:01:40;;;;;;;7.63;3.53;;;;;;;34.94;31.92;96488.00;5115290;28;20047;-64
2023/07/18 07:04:09;;;;;;;10.02;4.10;;;;;;;35.15;30.87;96484.94;5115227;28;20047;-65
2023/07/18 07:06:41;;;;;;;5.40;3.45;;;;;;;35.30;31.32;96486.56;5115179;28;20039;-64
2023/07/18 07:09:09;;;;;;;4.60;3.70;;;;;;;35.12;31.91;96488.09;5115195;28;20126;-65
2023/07/18 07:11:37;;;;;;;6.85;3.97;;;;;;;35.24;31.43;96485.56;5115017;28;20047;-64
2023/07/18 07:14:06;;;;;;;8.13;3.25;;;;;;;35.53;31.44;96486.00;5114991;28;20048;-65
2023/07/18 07:16:34;;;;;;;8.48;4.03;;;;;;;35.81;31.11;96481.22;5115308;28;20050;-64
2023/07/18 07:19:02;;;;;;;6.97;3.70;;;;;;;36.12;30.84;96484.09;5115092;28;20052;-64
2023/07/18 07:21:30;;;;;;;3.95;3.25;;;;;;;36.39;29.23;96479.22;5114796;28;20053;-64
2023/07/18 07:23:58;;;;;;;5.15;3.53;;;;;;;36.65;29.79;96490.06;5114952;28;20126;-64
2023/07/18 07:26:26;;;;;;;4.05;3.65;;;;;;;36.71;29.81;96482.91;5114778;28;20087;-64
2023/07/18 07:28:53;;;;;;;4.82;3.60;;;;;;;36.79;30.05;96477.16;5114854;28;20055;-65
2023/07/18 07:31:20;;;;;;;7.38;3.88;;;;;;;36.94;29.84;96479.47;5114695;28;20160;-64
2023/07/18 07:33:47;;;;;;;4.90;3.72;;;;;;;37.04;29.83;96485.22;5114637;28;20408;-64
2023/07/18 07:36:15;;;;;;;8.43;4.20;;;;;;;37.15;29.97;96480.03;5114595;28;20044;-65
2023/07/18 07:38:43;;;;;;;4.28;3.67;;;;;;;37.02;28.59;96481.88;5114756;28;20066;-64
2023/07/18 07:41:10;;;;;;;4.50;3.53;;;;;;;36.72;29.63;96479.13;5114453;28;20077;-64
2023/07/18 07:43:37;;;;;;;4.90;3.85;;;;;;;36.50;29.30;96484.97;5114671;28;20043;-65
2023/07/18 07:46:05;;;;;;;5.18;3.95;;;;;;;36.61;31.67;96481.53;5114640;28;20122;-64
2023/07/18 07:48:32;;;;;;;8.30;4.35;;;;;;;36.64;29.88;96472.91;5114375;28;20043;-64
2023/07/18 07:50:59;;;;;;;5.28;4.03;;;;;;;36.63;30.13;96473.94;5114366;28;20055;-65
2023/07/18 07:53:27;;;;;;;5.72;4.10;;;;;;;36.51;32.14;96476.59;5114277;28;20046;-64
2023/07/18 07:55:55;;;;;;;7.20;3.90;;;;;;;36.61;31.14;96478.81;5114291;28;20050;-64
2023/07/18 07:58:22;;;;;;;6.05;3.85;;;;;;;36.88;30.79;96477.66;5114246;28;20051;-64
2023/07/18 08:00:50;;;;;;;8.68;4.20;;;;;;;36.95;30.81;96467.50;5114117;28;20101;-64
2023/07/18 08:03:17;;;;;;;6.43;4.70;;;;;;;37.12;29.46;96464.16;5114105;28;20409;-63
2023/07/18 08:05:45;;;;;;;7.63;5.47;;;;;;;37.24;28.83;96470.53;5114110;28;20047;-63
2023/07/18 08:08:12;;;;;;;4.93;4.05;;;;;;;37.41;28.84;96467.94;5113961;28;20044;-65
2023/07/18 08:10:39;;;;;;;6.95;4.95;;;;;;;37.57;28.96;96460.19;5114106;28;20519;-65
2023/07/18 08:13:08;;;;;;;5.43;4.93;;;;;;;37.29;30.28;96465.19;5114059;28;20157;-65
2023/07/18 08:15:35;;;;;;;9.23;5.03;;;;;;;37.08;29.39;96455.59;5114202;28;20058;-64
2023/07/18 08:18:02;;;;;;;7.50;5.28;;;;;;;37.07;30.51;96462.13;5113700;28;20051;-64
2023/07/18 08:20:31;;;;;;;6.10;5.47;;;;;;;37.26;30.68;96456.66;5113769;28;20138;-64
2023/07/18 08:22:59;;;;;;;7.03;4.93;;;;;;;37.30;30.61;96460.56;5113821;28;20058;-64
2023/07/18 08:25:27;;;;;;;8.77;5.18;;;;;;;37.44;29.21;96455.78;5113768;28;20142;-65
2023/07/18 08:27:54;;;;;;;10.00;5.30;;;;;;;37.32;29.71;96454.91;5113734;28;20093;-65
2023/07/18 08:30:23;;;;;;;6.93;5.00;;;;;;;37.04;30.15;96455.25;5113683;28;20046;-64
2023/07/18 08:32:50;;;;;;;5.78;5.28;;;;;;;36.92;29.87;96462.53;5113625;28;20101;-65
2023/07/18 08:35:17;;;;;;;8.43;5.40;;;;;;;36.76;30.93;96461.28;5113663;28;20047;-64
2023/07/18 08:37:45;;;;;;;7.30;5.82;;;;;;;36.53;30.25;96458.16;5113621;28;20082;-64
2023/07/18 08:40:13;;;;;;;7.07;5.43;;;;;;;36.68;30.98;96451.47;5113600;28;20044;-65
2023/07/18 08:42:41;;;;;;;6.57;5.97;;;;;;;36.52;31.52;96464.66;5113658;28;20043;-65
2023/07/18 08:45:10;;;;;;;8.15;5.65;;;;;;;36.48;30.58;96454.44;5113541;28;20489;-64
2023/07/18 08:47:39;;;;;;;7.88;5.18;;;;;;;36.73;32.74;96448.94;5113472;28;20047;-65
2023/07/18 08:50:11;;;;;;;7.15;6.00;;;;;;;37.02;32.50;96448.38;5113644;28;20079;-64
2023/07/18 08:52:38;;;;;;;8.05;6.13;;;;;;;37.25;32.28;96449.53;5113414;28;20044;-64
2023/07/18 08:55:07;;;;;;;9.00;6.97;;;;;;;37.38;33.14;96445.78;5113379;28;20131;-65
2023/07/18 08:57:35;;;;;;;10.48;8.02;;;;;;;37.29;31.97;96448.03;5113391;28;20059;-65
2023/07/18 09:00:07;;;;;;;11.73;7.65;;;;;;;37.13;32.70;96441.28;5113276;28;20047;-65
2023/07/18 09:02:34;;;;;;;12.55;7.38;;;;;;;37.31;32.83;96453.25;5113382;28;20130;-65
2023/07/18 09:05:04;;;;;;;7.50;6.70;;;;;;;37.33;31.84;96432.84;5115693;28;20047;-64
2023/07/18 09:07:37;;;;;;;10.20;7.25;;;;;;;37.46;31.05;96437.25;5117741;28;20047;-64
2023/07/18 09:10:05;;;;;;;12.07;7.55;;;;;;;37.61;31.49;96438.69;5117492;28;20539;-64
2023/07/18 09:12:35;;;;;;;13.82;7.68;;;;;;;37.84;31.01;96428.91;5117448;28;20169;-64
2023/07/18 09:15:02;;;;;;;8.48;7.68;;;;;;;37.88;30.56;96430.94;5117419;28;20054;-64
2023/07/18 09:17:31;;;;;;;12.48;7.10;;;;;;;37.98;32.19;96421.34;5117190;28;20059;-64
2023/07/18 09:20:08;;;;;;;17.15;7.80;;;;;;;37.86;30.91;96426.78;5117188;28;20051;-64
2023/07/18 09:22:36;;;;;;;11.70;7.25;;;;;;;37.78;30.41;96425.25;5117304;28;20427;-64
2023/07/18 09:25:04;;;;;;;11.60;7.43;;;;;;;37.59;30.76;96417.13;5117313;28;20069;-65
2023/07/18 09:27:31;;;;;;;9.05;6.88;;;;;;;37.84;33.24;96424.31;5117163;28;20046;-64
2023/07/18 09:29:58;;;;;;;11.00;7.57;;;;;;;37.96;30.25;96427.03;5117041;28;20047;-65
2023/07/18 09:32:26;;;;;;;12.75;6.75;;;;;;;37.90;30.09;96420.63;5117019;28;20040;-64
2023/07/18 09:34:54;;;;;;;9.85;7.13;;;;;;;37.67;31.01;96422.28;5117418;28;20360;-65
2023/07/18 09:37:23;;;;;;;14.70;7.70;;;;;;;37.53;30.63;96423.53;5117252;28;20051;-65
2023/07/18 09:39:50;;;;;;;12.30;8.32;;;;;;;37.38;30.28;96419.34;5116865;28;20062;-64
2023/07/18 09:42:19;;;;;;;10.30;7.72;;;;;;;36.99;31.77;96413.41;5117091;28;20081;-64
2023/07/18 09:44:49;;;;;;;8.30;7.50;;;;;;;36.54;32.12;96418.97;5116940;28;20122;-65
2023/07/18 09:47:17;;;;;;;13.10;6.78;;;;;;;36.73;31.51;96407.25;5116839;28;20051;-64
2023/07/18 09:49:45;;;;;;;12.20;6.90;;;;;;;36.83;30.02;96415.72;5116719;28;20497;-64
2023/07/18 09:52:13;;;;;;;8.52;7.38;;;;;;;36.67;30.46;96406.25;5116812;28;20051;-64
2023/07/18 09:54:44;;;;;;;9.20;7.28;;;;;;;35.99;32.64;96409.69;5116644;28;20131;-64
2023/07/18 09:57:11;;;;;;;10.10;7.32;;;;;;;35.73;32.09;96402.63;5116588;28;20055;-64
2023/07/18 09:59:39;;;;;;;10.40;8.13;;;;;;;35.51;33.57;96409.25;5116457;28;20456;-64
2023/07/18 10:02:09;;;;;;;8.23;7.43;;;;;;;35.26;33.61;96414.69;5116432;28;20058;-64
2023/07/18 10:04:36;;;;;;;10.80;7.15;;;;;;;34.93;33.96;96400.22;5116506;28;20097;-64
2023/07/18 10:07:04;;;;;;;11.57;7.82;;;;;;;34.99;35.29;96395.81;5116484;28;20055;-64
2023/07/18 10:09:33;;;;;;;11.02;7.45;;;;;;;35.36;34.58;96400.63;5116497;28;20059;-64
2023/07/18 10:12:12;;;;;;;16.15;8.40;;;;;;;35.52;33.38;96389.19;5116385;28;20051;-63
2023/07/18 10:14:52;;;;;;;11.98;8.50;;;;;;;35.95;32.82;96396.78;5116250;28;20079;-64
2023/07/18 10:17:30;;;;;;;8.88;7.93;;;;;;;35.99;32.51;96384.41;5114995;28;20071;-64
2023/07/18 10:19:57;;;;;;;9.60;7.45;;;;;;;36.28;31.28;96377.41;5116171;28;20069;-64
2023/07/18 10:22:28;;;;;;;13.00;8.50;;;;;;;36.36;34.60;96389.84;5116222;28;20435;-64
2023/07/18 10:24:59;;;;;;;12.25;7.53;;;;;;;36.22;31.11;96388.34;5115955;28;20044;-64
2023/07/18 10:27:37;;;;;;;9.27;8.27;;;;;;;35.51;33.10;96382.09;5115932;28;20043;-65
2023/07/18 10:30:05;;;;;;;16.25;8.15;;;;;;;35.41;33.32;96381.75;5116009;28;20051;-64
2023/07/18 10:32:34;;;;;;;13.05;7.88;;;;;;;35.23;31.93;96368.94;5115846;28;20075;-64
2023/07/18 10:35:06;;;;;;;12.60;8.27;;;;;;;35.38;32.20;96374.88;5115872;28;20415;-64
2023/07/18 10:37:36;;;;;;;9.85;8.40;;;;;;;35.62;34.27;96374.25;5115690;28;20047;-64
2023/07/18 10:40:06;;;;;;;14.25;9.13;;;;;;;35.53;32.74;96380.00;5115773;28;20047;-64
2023/07/18 10:42:35;;;;;;;11.10;8.68;;;;;;;35.46;33.38;96371.06;5115659;28;20048;-63
2023/07/18 10:45:05;;;;;;;11.35;8.95;;;;;;;35.09;34.94;96374.41;5115698;28;20040;-63
2023/07/18 10:47:33;;;;;;;14.70;9.18;;;;;;;34.81;35.67;96366.66;5115658;28;20054;-63
2023/07/18 10:50:01;;;;;;;11.95;9.40;;;;;;;34.82;34.14;96354.78;5115576;28;20051;-63
2023/07/18 10:52:28;;;;;;;9.15;8.32;;;;;;;34.98;34.17;96364.28;5115380;28;20093;-63
2023/07/18 10:54:57;;;;;;;10.07;8.20;;;;;;;35.33;33.64;96350.25;5115436;28;20051;-63
2023/07/18 10:57:28;;;;;;;12.52;9.52;;;;;;;35.67;33.97;96356.22;5115458;28;20044;-63
2023/07/18 10:59:57;;;;;;;10.57;8.25;;;;;;;35.51;34.80;96363.06;5115445;28;20557;-63
2023/07/18 11:02:24;;;;;;;9.43;8.52;;;;;;;35.18;33.56;96368.78;5115452;28;20073;-63
2023/07/18 11:04:53;;;;;;;13.15;8.52;;;;;;;35.09;34.17;96381.75;5115270;28;20044;-64
2023/07/18 11:07:31;;;;;;;13.15;9.50;;;;;;;34.84;35.48;96394.22;5115331;28;20059;-63
2023/07/18 11:09:58;;;;;;;11.45;8.45;;;;;;;33.72;41.11;96423.94;5115088;28;20078;-64
2023/07/18 11:12:26;;;;;;;20.27;10.93;;;;;;;31.94;46.27;96430.78;5115255;28;20100;-65
2023/07/18 11:14:53;;;;;;;8.85;7.95;;;;;;;30.07;45.36;96413.94;5115149;28;20396;-66
2023/07/18 11:17:22;;;;;;;11.35;8.48;;;;;;;29.25;50.25;96416.38;5114785;28;20097;-64
2023/07/18 11:19:49;;;;;;;14.80;10.07;;;;;;;28.73;53.42;96395.34;5115051;28;20488;-67
2023/07/18 11:22:17;;;;;;;15.55;10.38;;;;;;;28.56;55.92;96402.63;5114943;28;20400;-66
2023/07/18 11:24:46;;;;;;;16.30;11.07;;;;;;;28.65;59.37;96398.06;5114852;28;20135;-64
2023/07/18 11:27:15;;;;;;;13.50;10.30;;;;;;;28.81;55.89;96394.44;5114484;28;20050;-64
2023/07/18 11:29:50;;;;;;;11.65;10.45;;;;;;;29.09;57.47;96377.81;5114913;28;20047;-65
2023/07/18 11:32:39;;;;;;;13.73;10.52;;;;;;;29.65;58.58;96375.84;5114704;28;20055;-65
2023/07/18 11:35:09;;;;;;;11.68;10.00;;;;;;;30.12;55.64;96372.97;5114672;28;20058;-65